createdAt,value
2019-01-25T00:01:07.912Z,83.43
2019-01-25T00:03:35.977Z,76.53
2019-01-25T00:06:03.905Z,85.40
2019-01-25T00:08:30.387Z,79.90
2019-01-25T00:10:56.919Z,85.00
2019-01-25T00:13:23.696Z,81.13
2019-01-25T00:15:50.178Z,94.70
2019-01-25T00:18:16.719Z,78.73
2019-01-25T00:20:43.323Z,88.87
2019-01-25T00:23:09.905Z,79.13
2019-01-25T00:25:36.326Z,92.37
2019-01-25T00:28:03.205Z,77.90
2019-01-25T00:30:29.610Z,92.07
2019-01-25T00:32:56.139Z,92.10
2019-01-25T00:35:22.723Z,89.60
2019-01-25T00:37:49.216Z,88.07
2019-01-25T00:40:18.355Z,91.27
2019-01-25T00:42:45.038Z,95.53
2019-01-25T00:45:12.274Z,87.23
2019-01-25T00:47:38.715Z,85.03
2019-01-25T00:50:09.025Z,83.67
2019-01-25T00:52:35.697Z,93.53
2019-01-25T00:55:03.821Z,93.03
2019-01-25T00:57:30.416Z,92.83
2019-01-25T00:59:56.882Z,84.70
2019-01-25T01:02:23.296Z,97.77
2019-01-25T01:04:49.700Z,88.30
2019-01-25T01:07:17.488Z,87.10
2019-01-25T01:09:44.174Z,96.33
2019-01-25T01:12:10.752Z,92.63
2019-01-25T01:14:37.280Z,88.37
2019-01-25T01:17:03.852Z,87.17
2019-01-25T01:19:30.262Z,86.70
2019-01-25T01:21:56.721Z,88.87
2019-01-25T01:24:23.109Z,94.93
2019-01-25T01:26:51.518Z,95.77
2019-01-25T01:29:18.024Z,93.10
2019-01-25T01:31:45.024Z,91.37
2019-01-25T01:34:11.461Z,90.27
2019-01-25T01:36:37.864Z,94.33
2019-01-25T01:39:05.251Z,89.23
2019-01-25T01:41:31.658Z,89.07
2019-01-25T01:43:58.141Z,88.83
2019-01-25T01:46:24.545Z,89.87
2019-01-25T01:48:51.037Z,89.80
2019-01-25T01:51:17.561Z,86.53
2019-01-25T01:53:43.923Z,90.53
2019-01-25T01:56:10.354Z,85.70
2019-01-25T01:58:36.847Z,94.00
2019-01-25T02:01:03.539Z,86.17
2019-01-25T02:03:29.907Z,93.53
2019-01-25T02:05:56.364Z,79.73
2019-01-25T02:08:22.741Z,89.07
2019-01-25T02:10:49.260Z,92.03
2019-01-25T02:13:15.852Z,89.30
2019-01-25T02:15:42.387Z,88.67
2019-01-25T02:18:08.878Z,91.97
2019-01-25T02:20:35.519Z,90.47
2019-01-25T02:23:02.134Z,93.03
2019-01-25T02:25:28.956Z,90.43
2019-01-25T02:27:55.521Z,88.77
2019-01-25T02:30:23.745Z,88.97
2019-01-25T02:32:50.325Z,91.77
2019-01-25T02:35:16.840Z,87.07
2019-01-25T02:37:43.322Z,88.60
2019-01-25T02:40:18.485Z,93.80
2019-01-25T02:42:45.040Z,90.53
2019-01-25T02:45:12.435Z,96.23
2019-01-25T02:47:39.169Z,86.40
2019-01-25T02:50:12.343Z,94.60
2019-01-25T02:52:40.752Z,87.13
2019-01-25T02:55:08.981Z,88.47
2019-01-25T02:57:35.463Z,92.23
2019-01-25T03:00:05.802Z,96.40
2019-01-25T03:02:32.362Z,83.97
2019-01-25T03:04:58.783Z,88.27
2019-01-25T03:07:25.341Z,85.10
2019-01-25T03:09:51.823Z,92.30
2019-01-25T03:12:18.362Z,98.10
2019-01-25T03:14:44.720Z,91.10
2019-01-25T03:17:11.250Z,85.40
2019-01-25T03:19:39.554Z,99.47
2019-01-25T03:22:06.219Z,99.47
2019-01-25T03:24:32.767Z,92.70
2019-01-25T03:26:59.279Z,87.10
2019-01-25T03:29:25.698Z,95.10
2019-01-25T03:31:52.213Z,92.53
2019-01-25T03:34:18.678Z,98.23
2019-01-25T03:36:45.183Z,97.27
2019-01-25T03:39:11.761Z,93.93
2019-01-25T03:41:38.381Z,95.27
2019-01-25T03:44:04.966Z,92.73
2019-01-25T03:46:31.477Z,94.70
2019-01-25T03:48:57.948Z,92.60
2019-01-25T03:51:24.411Z,88.83
2019-01-25T03:53:51.058Z,92.37
2019-01-25T03:56:18.720Z,92.17
2019-01-25T03:58:45.196Z,91.73
2019-01-25T04:01:11.581Z,87.33
2019-01-25T04:03:38.123Z,86.93
2019-01-25T04:06:04.687Z,85.37
2019-01-25T04:08:31.977Z,92.10
2019-01-25T04:11:03.366Z,85.07
2019-01-25T04:13:26.673Z,85.50
2019-01-25T04:15:53.150Z,99.07
2019-01-25T04:18:20.609Z,92.43
2019-01-25T04:20:46.999Z,92.27
2019-01-25T04:23:13.403Z,98.90
2019-01-25T04:25:39.787Z,91.90
2019-01-25T04:28:06.393Z,93.90
2019-01-25T04:30:33.201Z,94.67
2019-01-25T04:32:59.846Z,102.13
2019-01-25T04:35:26.429Z,101.27
2019-01-25T04:37:53.031Z,91.10
2019-01-25T04:40:20.801Z,95.50
2019-01-25T04:42:47.400Z,103.57
2019-01-25T04:45:16.765Z,104.97
2019-01-25T04:47:43.325Z,97.57
2019-01-25T04:50:13.062Z,94.70
2019-01-25T04:52:40.190Z,102.20
2019-01-25T04:55:10.352Z,87.20
2019-01-25T04:57:36.856Z,90.40
2019-01-25T05:00:07.152Z,103.23
2019-01-25T05:02:33.763Z,101.70
2019-01-25T05:05:00.209Z,94.70
2019-01-25T05:07:26.703Z,86.77
2019-01-25T05:09:53.078Z,90.77
2019-01-25T05:12:19.594Z,97.60
2019-01-25T05:14:46.088Z,93.47
2019-01-25T05:17:12.536Z,90.23
2019-01-25T05:19:39.293Z,99.87
2019-01-25T05:22:06.052Z,95.80
2019-01-25T05:24:32.487Z,91.47
2019-01-25T05:26:58.959Z,96.10
2019-01-25T05:29:44.294Z,93.00
2019-01-25T05:32:11.039Z,95.57
2019-01-25T05:34:37.588Z,89.27
2019-01-25T05:37:08.676Z,97.33
2019-01-25T05:39:35.226Z,96.10
2019-01-25T05:42:01.628Z,100.80
2019-01-25T05:44:28.166Z,92.00
2019-01-25T05:46:54.559Z,92.30
2019-01-25T05:49:22.778Z,95.30
2019-01-25T05:51:49.455Z,94.27
2019-01-25T05:54:15.978Z,87.90
2019-01-25T05:56:42.359Z,96.17
2019-01-25T05:59:08.971Z,96.50
2019-01-25T06:01:41.085Z,97.07
2019-01-25T06:04:08.191Z,95.67
2019-01-25T06:06:34.701Z,105.13
2019-01-25T06:09:01.228Z,94.37
2019-01-25T06:11:35.219Z,94.93
2019-01-25T06:13:57.107Z,93.17
2019-01-25T06:16:23.543Z,107.20
2019-01-25T06:18:50.033Z,91.57
2019-01-25T06:21:16.635Z,100.07
2019-01-25T06:23:43.149Z,97.10
2019-01-25T06:26:11.896Z,99.27
2019-01-25T06:28:38.458Z,104.50
2019-01-25T06:31:05.136Z,111.40
2019-01-25T06:33:31.570Z,104.03
2019-01-25T06:35:57.948Z,100.10
2019-01-25T06:38:24.467Z,100.10
2019-01-25T06:40:50.868Z,102.23
2019-01-25T06:43:17.398Z,101.27
2019-01-25T06:45:43.992Z,104.33
2019-01-25T06:48:10.468Z,97.47
2019-01-25T06:50:36.895Z,99.47
2019-01-25T06:53:03.514Z,96.40
2019-01-25T06:55:30.006Z,100.73
2019-01-25T06:58:01.118Z,100.50
2019-01-25T07:00:35.453Z,104.47
2019-01-25T07:03:01.906Z,100.53
2019-01-25T07:05:28.556Z,110.03
2019-01-25T07:07:57.082Z,98.40
2019-01-25T07:10:23.722Z,110.67
2019-01-25T07:12:50.094Z,110.77
2019-01-25T07:15:18.724Z,107.17
2019-01-25T07:17:45.797Z,102.33
2019-01-25T07:20:16.269Z,110.90
2019-01-25T07:22:42.630Z,115.70
2019-01-25T07:25:11.640Z,105.47
2019-01-25T07:27:38.271Z,105.17
2019-01-25T07:30:08.645Z,117.23
2019-01-25T07:32:43.861Z,110.47
2019-01-25T07:35:11.147Z,102.63
2019-01-25T07:37:37.721Z,112.70
2019-01-25T07:40:06.737Z,105.20
2019-01-25T07:42:33.335Z,113.43
2019-01-25T07:44:59.809Z,124.13
2019-01-25T07:47:26.333Z,114.40
2019-01-25T07:49:52.751Z,119.77
2019-01-25T07:52:19.162Z,115.33
2019-01-25T07:54:45.599Z,114.10
2019-01-25T07:57:11.985Z,114.63
2019-01-25T07:59:38.526Z,130.77
2019-01-25T08:02:05.226Z,116.70
2019-01-25T08:04:31.725Z,118.17
2019-01-25T08:06:58.977Z,125.37
2019-01-25T08:09:25.725Z,134.53
2019-01-25T08:11:52.492Z,122.40
2019-01-25T08:14:19.162Z,131.23
2019-01-25T08:16:45.524Z,136.10
2019-01-25T08:19:12.171Z,137.57
2019-01-25T08:21:38.621Z,137.73
2019-01-25T08:24:05.322Z,147.87
2019-01-25T08:26:31.944Z,152.77
2019-01-25T08:28:58.576Z,149.87
2019-01-25T08:31:25.506Z,137.03
2019-01-25T08:33:51.920Z,125.90
2019-01-25T08:36:18.545Z,128.37
2019-01-25T08:38:45.130Z,140.03
2019-01-25T08:41:11.762Z,147.67
2019-01-25T08:43:38.117Z,133.07
2019-01-25T08:51:10.338Z,137.00
2019-01-25T08:53:36.836Z,139.93
2019-01-25T08:56:06.386Z,136.57
2019-01-25T08:58:32.918Z,142.93
2019-01-25T09:00:59.473Z,130.37
2019-01-25T09:03:25.868Z,148.67
2019-01-25T09:05:52.386Z,130.93
2019-01-25T09:08:18.839Z,133.93
2019-01-25T09:10:45.341Z,141.03
2019-01-25T09:13:11.830Z,127.47
2019-01-25T09:15:38.394Z,131.03
2019-01-25T09:18:04.965Z,129.20
2019-01-25T09:20:31.493Z,123.87
2019-01-25T09:22:57.977Z,124.53
2019-01-25T09:25:24.463Z,122.30
2019-01-25T09:27:50.980Z,120.53
2019-01-25T09:30:25.170Z,137.47
2019-01-25T09:32:51.902Z,123.13
2019-01-25T09:35:18.478Z,124.53
2019-01-25T09:37:45.116Z,132.07
2019-01-25T09:40:21.512Z,121.07
2019-01-25T09:42:54.071Z,119.23
2019-01-25T09:45:20.949Z,122.37
2019-01-25T09:47:47.364Z,111.97
2019-01-25T09:50:21.590Z,126.97
2019-01-25T09:52:48.277Z,118.93
2019-01-25T09:55:19.992Z,124.20
2019-01-25T09:57:46.593Z,131.80
2019-01-25T10:00:22.522Z,122.90
2019-01-25T10:02:49.113Z,132.03
2019-01-25T10:05:15.782Z,147.30
2019-01-25T10:07:42.557Z,121.70
2019-01-25T10:10:09.154Z,139.63
2019-01-25T10:12:43.078Z,141.37
2019-01-25T10:15:13.692Z,149.63
2019-01-25T10:17:40.241Z,156.17
2019-01-25T10:20:09.251Z,135.70
2019-01-25T10:22:35.765Z,151.67
2019-01-25T10:25:04.666Z,140.77
2019-01-25T10:27:31.060Z,154.50
2019-01-25T10:29:57.676Z,146.57
2019-01-25T10:32:24.276Z,136.63
2019-01-25T10:34:50.670Z,148.23
2019-01-25T10:37:17.111Z,144.20
2019-01-25T10:39:43.641Z,145.97
2019-01-25T10:42:10.265Z,140.87
2019-01-25T10:44:36.646Z,129.23
2019-01-25T10:47:03.866Z,121.60
2019-01-25T10:49:30.463Z,130.33
2019-01-25T10:51:56.954Z,132.13
2019-01-25T10:54:23.344Z,116.83
2019-01-25T10:56:50.010Z,123.27
2019-01-25T10:59:16.534Z,113.10
2019-01-25T11:01:43.046Z,122.13
2019-01-25T11:07:05.881Z,116.50
2019-01-25T11:09:32.376Z,122.97
2019-01-25T11:11:58.930Z,112.33
2019-01-25T11:14:25.309Z,120.50
2019-01-25T11:16:51.744Z,111.40
2019-01-25T11:19:18.241Z,105.77
2019-01-25T11:21:44.883Z,95.50
2019-01-25T11:24:11.420Z,90.50
2019-01-25T11:26:38.145Z,87.53
2019-01-25T11:29:04.856Z,79.30
2019-01-25T11:31:31.258Z,80.80
2019-01-25T11:33:57.674Z,88.83
2019-01-25T11:36:24.255Z,104.80
2019-01-25T11:38:50.863Z,98.37
2019-01-25T11:41:18.131Z,77.07
2019-01-25T11:43:44.546Z,53.77
2019-01-25T11:46:11.324Z,49.10
2019-01-25T11:48:37.759Z,47.80
2019-01-25T11:51:04.147Z,40.77
2019-01-25T11:53:30.545Z,38.27
2019-01-25T11:55:57.050Z,38.20
2019-01-25T11:58:23.618Z,37.40
2019-01-25T12:00:50.149Z,34.20
2019-01-25T12:03:16.585Z,37.13
2019-01-25T12:05:43.043Z,33.80
2019-01-25T12:08:09.889Z,30.37
2019-01-25T12:10:36.302Z,36.27
2019-01-25T12:13:03.054Z,35.13
2019-01-25T12:15:29.572Z,32.20
2019-01-25T12:17:55.978Z,36.17
2019-01-25T12:20:27.478Z,32.07
2019-01-25T12:22:54.092Z,32.43
2019-01-25T12:25:20.687Z,31.70
2019-01-25T12:27:47.229Z,33.27
2019-01-25T12:30:17.447Z,37.60
2019-01-25T12:32:43.859Z,34.73
2019-01-25T12:35:11.508Z,32.73
2019-01-25T12:37:37.965Z,34.93
2019-01-25T12:40:08.159Z,39.77
2019-01-25T12:42:34.769Z,34.50
2019-01-25T12:45:01.304Z,35.10
2019-01-25T12:47:27.742Z,35.40
2019-01-25T12:49:54.283Z,37.20
2019-01-25T12:52:20.878Z,38.57
2019-01-25T12:54:47.310Z,34.33
2019-01-25T12:57:13.784Z,34.43
2019-01-25T12:59:40.233Z,37.43
2019-01-25T13:02:06.837Z,31.33
2019-01-25T13:04:33.248Z,35.27
2019-01-25T13:06:59.858Z,33.93
2019-01-25T13:09:26.484Z,36.93
2019-01-25T13:11:53.103Z,31.23
2019-01-25T13:14:19.594Z,36.30
2019-01-25T13:16:46.231Z,34.77
2019-01-25T13:19:12.607Z,28.57
2019-01-25T13:21:39.171Z,32.50
2019-01-25T13:24:05.825Z,31.37
2019-01-25T13:26:32.421Z,28.87
2019-01-25T13:28:58.860Z,32.53
2019-01-25T13:31:25.266Z,30.43
2019-01-25T13:33:52.062Z,32.27
2019-01-25T13:36:18.563Z,33.23
2019-01-25T13:38:47.234Z,32.87
2019-01-25T13:41:13.874Z,28.03
2019-01-25T13:43:44.075Z,30.00
2019-01-25T13:46:10.898Z,34.07
2019-01-25T13:48:37.500Z,30.83
2019-01-25T13:51:04.246Z,29.87
2019-01-25T13:53:31.742Z,30.87
2019-01-25T13:55:58.264Z,28.27
2019-01-25T13:58:24.746Z,28.70
2019-01-25T14:00:54.264Z,28.37
2019-01-25T14:03:21.092Z,27.30
2019-01-25T14:05:47.678Z,27.60
2019-01-25T14:08:14.148Z,30.43
2019-01-25T14:10:40.783Z,26.73
2019-01-25T14:13:07.435Z,26.80
2019-01-25T14:15:34.088Z,29.23
2019-01-25T14:18:00.709Z,28.30
2019-01-25T14:20:31.547Z,28.77
2019-01-25T14:22:58.101Z,22.83
2019-01-25T14:25:24.723Z,25.40
2019-01-25T14:27:51.548Z,24.97
2019-01-25T14:30:24.286Z,21.13
2019-01-25T14:32:51.622Z,24.20
2019-01-25T14:35:18.652Z,23.23
2019-01-25T14:37:45.307Z,21.83
2019-01-25T14:40:12.373Z,23.57
2019-01-25T14:42:38.865Z,21.30
2019-01-25T14:45:09.118Z,21.53
2019-01-25T14:47:35.507Z,21.80
2019-01-25T14:50:04.618Z,21.77
2019-01-25T14:52:31.330Z,23.70
2019-01-25T14:54:57.772Z,21.23
2019-01-25T14:57:27.350Z,20.40
2019-01-25T14:59:54.188Z,20.40
2019-01-25T15:02:21.021Z,22.10
2019-01-25T15:04:49.743Z,18.97
2019-01-25T15:07:19.170Z,22.77
2019-01-25T15:09:48.876Z,21.63
2019-01-25T15:12:15.500Z,21.57
2019-01-25T15:14:42.022Z,22.23
2019-01-25T15:17:08.613Z,21.37
2019-01-25T15:19:35.351Z,19.37
2019-01-25T15:22:01.816Z,22.73
2019-01-25T15:24:28.916Z,22.00
2019-01-25T15:26:55.516Z,21.30
2019-01-25T15:29:25.451Z,20.73
2019-01-25T15:31:51.982Z,20.83
2019-01-25T15:34:18.521Z,20.90
2019-01-25T15:36:46.177Z,20.87
2019-01-25T15:39:13.308Z,23.10
2019-01-25T15:41:39.818Z,19.30
2019-01-25T15:44:10.112Z,25.87
2019-01-25T15:46:34.818Z,21.23
2019-01-25T15:49:01.270Z,29.07
2019-01-25T15:51:27.876Z,24.73
2019-01-25T15:53:54.313Z,24.27
2019-01-25T15:56:21.023Z,27.33
2019-01-25T15:58:47.591Z,26.90
2019-01-25T16:01:14.228Z,26.83
2019-01-25T16:03:40.716Z,27.27
2019-01-25T16:06:07.154Z,23.30
2019-01-25T16:08:33.601Z,30.30
2019-01-25T16:11:00.114Z,30.57
2019-01-25T16:13:26.689Z,34.87
2019-01-25T16:15:53.225Z,35.77
2019-01-25T16:18:19.605Z,32.13
2019-01-25T16:20:46.154Z,35.90
2019-01-25T16:23:12.610Z,34.97
2019-01-25T16:25:40.055Z,36.07
2019-01-25T16:28:06.637Z,34.80
2019-01-25T16:30:34.680Z,37.87
2019-01-25T16:33:01.141Z,38.97
2019-01-25T16:35:27.772Z,37.97
2019-01-25T16:37:54.763Z,40.73
2019-01-25T16:40:23.924Z,41.83
2019-01-25T16:42:50.494Z,43.60
2019-01-25T16:45:23.050Z,44.37
2019-01-25T16:47:49.454Z,46.33
2019-01-25T16:50:23.418Z,51.70
2019-01-25T16:52:44.433Z,54.97
2019-01-25T16:55:13.090Z,59.63
2019-01-25T16:57:39.565Z,63.50
2019-01-25T17:00:30.709Z,62.03
2019-01-25T17:02:57.280Z,56.37
2019-01-25T17:05:24.174Z,64.63
2019-01-25T17:07:50.750Z,56.47
2019-01-25T17:10:25.920Z,61.60
2019-01-25T17:12:54.910Z,62.00
2019-01-25T17:15:21.918Z,61.90
2019-01-25T17:17:49.581Z,61.77
2019-01-25T17:20:21.361Z,66.93
2019-01-25T17:22:47.108Z,69.03
2019-01-25T17:25:14.146Z,65.10
2019-01-25T17:27:41.016Z,66.23
2019-01-25T17:30:12.110Z,77.30
2019-01-25T17:32:38.590Z,76.10
2019-01-25T17:35:14.067Z,81.07
2019-01-25T17:37:42.785Z,74.43
2019-01-25T17:40:15.670Z,79.40
2019-01-25T17:42:42.556Z,84.93
2019-01-25T17:45:11.570Z,76.80
2019-01-25T17:47:38.232Z,72.83
2019-01-25T17:50:08.118Z,81.33
2019-01-25T17:52:34.643Z,78.83
2019-01-25T17:55:07.427Z,72.73
2019-01-25T17:57:34.290Z,82.63
2019-01-25T18:00:00.800Z,75.60
2019-01-25T18:02:27.338Z,79.37
2019-01-25T18:04:53.857Z,66.33
2019-01-25T18:07:20.269Z,77.20
2019-01-25T18:09:46.900Z,72.23
2019-01-25T18:12:13.335Z,74.43
2019-01-25T18:14:40.068Z,75.43
2019-01-25T18:17:07.037Z,70.13
2019-01-25T18:19:33.772Z,71.97
2019-01-25T18:22:00.467Z,72.13
2019-01-25T18:24:26.959Z,71.93
2019-01-25T18:26:54.629Z,78.27
2019-01-25T18:29:21.230Z,78.53
2019-01-25T18:31:47.797Z,72.13
2019-01-25T18:34:14.286Z,79.53
2019-01-25T18:36:40.869Z,73.77
2019-01-25T18:39:07.477Z,73.40
2019-01-25T18:41:35.396Z,69.10
2019-01-25T18:44:02.068Z,70.53
2019-01-25T18:46:28.626Z,74.83
2019-01-25T18:48:55.066Z,70.40
2019-01-25T18:51:21.676Z,72.17
2019-01-25T18:53:48.118Z,77.03
2019-01-25T18:56:14.689Z,77.17
2019-01-25T18:58:41.137Z,76.37
2019-01-25T19:01:07.713Z,79.37
2019-01-25T19:03:34.122Z,78.50
2019-01-25T19:06:00.614Z,72.97
2019-01-25T19:08:27.146Z,80.20
2019-01-25T19:10:55.037Z,73.20
2019-01-25T19:13:21.573Z,86.03
2019-01-25T19:15:47.961Z,78.70
2019-01-25T19:18:14.600Z,77.57
2019-01-25T19:20:41.107Z,79.50
2019-01-25T19:23:07.749Z,73.50
2019-01-25T19:25:34.243Z,74.77
2019-01-25T19:28:01.087Z,70.60
2019-01-25T19:30:34.127Z,67.27
2019-01-25T19:33:00.776Z,70.87
2019-01-25T19:35:27.309Z,76.23
2019-01-25T19:37:53.931Z,71.33
2019-01-25T19:40:24.096Z,61.37
2019-01-25T19:42:51.800Z,76.17
2019-01-25T19:45:18.633Z,70.67
2019-01-25T19:47:45.332Z,71.80
2019-01-25T19:50:14.835Z,68.93
2019-01-25T19:52:41.640Z,67.07
2019-01-25T19:55:11.210Z,66.67
2019-01-25T19:57:37.729Z,67.83
2019-01-25T20:00:08.235Z,76.57
2019-01-25T20:02:34.783Z,78.73
2019-01-25T20:05:01.151Z,80.70
2019-01-25T20:07:27.763Z,68.80
2019-01-25T20:09:54.190Z,76.33
2019-01-25T20:12:20.768Z,72.30
2019-01-25T20:14:47.395Z,71.10
2019-01-25T20:17:13.920Z,66.93
2019-01-25T20:19:40.386Z,70.23
2019-01-25T20:22:08.028Z,83.20
2019-01-25T20:24:34.453Z,73.00
2019-01-25T20:27:00.833Z,87.80
2019-01-25T20:29:28.971Z,67.50
2019-01-25T20:31:57.638Z,76.47
2019-01-25T20:34:25.408Z,78.20
2019-01-25T20:36:54.002Z,81.23
2019-01-25T20:39:20.448Z,79.00
2019-01-25T20:41:46.815Z,70.83
2019-01-25T20:44:13.704Z,83.23
2019-01-25T20:46:40.130Z,74.70
2019-01-25T20:49:06.740Z,72.90
2019-01-25T20:51:33.611Z,73.10
2019-01-25T20:54:00.146Z,73.33
2019-01-25T20:56:26.765Z,76.53
2019-01-25T20:58:53.694Z,74.00
2019-01-25T21:01:20.273Z,79.23
2019-01-25T21:03:46.839Z,77.40
2019-01-25T21:06:13.199Z,73.93
2019-01-25T21:08:39.883Z,79.60
2019-01-25T21:11:06.466Z,72.37
2019-01-25T21:13:33.255Z,76.90
2019-01-25T21:15:59.636Z,69.63
2019-01-25T21:18:26.143Z,75.83
2019-01-25T21:20:52.502Z,72.80
2019-01-25T21:23:19.058Z,75.10
2019-01-25T21:25:45.517Z,69.17
2019-01-25T21:28:12.213Z,86.20
2019-01-25T21:30:38.802Z,77.37
2019-01-25T21:33:05.537Z,75.97
2019-01-25T21:35:32.183Z,74.23
2019-01-25T21:37:59.937Z,70.37
2019-01-25T21:40:28.520Z,75.93
2019-01-25T21:42:58.583Z,83.17
2019-01-25T21:45:28.070Z,80.60
2019-01-25T21:47:54.720Z,74.90
2019-01-25T21:50:24.180Z,90.80
2019-01-25T21:52:50.715Z,75.03
2019-01-25T21:55:17.198Z,70.97
2019-01-25T21:57:43.927Z,74.17
2019-01-25T22:00:22.808Z,79.17
2019-01-25T22:02:49.543Z,78.13
2019-01-25T22:05:16.586Z,75.87
2019-01-25T22:07:43.154Z,85.30
2019-01-25T22:10:18.514Z,66.77
2019-01-25T22:12:45.078Z,69.20
2019-01-25T22:15:15.000Z,72.47
2019-01-25T22:17:41.597Z,62.93
2019-01-25T22:20:11.612Z,73.43
2019-01-25T22:22:38.046Z,61.43
2019-01-25T22:25:07.049Z,56.20
2019-01-25T22:27:33.622Z,66.30
2019-01-25T22:30:00.178Z,60.77
2019-01-25T22:32:26.810Z,66.90
2019-01-25T22:34:53.285Z,57.33
2019-01-25T22:37:19.721Z,60.83
2019-01-25T22:39:46.365Z,63.33
2019-01-25T22:42:12.960Z,57.80
2019-01-25T22:44:39.523Z,62.70
2019-01-25T22:47:08.185Z,62.77
2019-01-25T22:49:34.808Z,64.97
2019-01-25T22:52:01.375Z,72.90
2019-01-25T22:54:28.192Z,72.77
2019-01-25T22:56:54.847Z,69.07
2019-01-25T22:59:21.778Z,62.53
2019-01-25T23:01:48.559Z,69.17
2019-01-25T23:04:41.827Z,68.17
2019-01-25T23:07:08.322Z,66.17
2019-01-25T23:09:34.856Z,64.50
2019-01-25T23:12:01.355Z,70.77
2019-01-25T23:14:27.918Z,83.20
2019-01-25T23:19:31.309Z,79.20
2019-01-25T23:21:58.023Z,82.23
2019-01-25T23:24:24.669Z,84.27
2019-01-25T23:26:52.853Z,89.40
2019-01-25T23:29:19.355Z,87.73
2019-01-25T23:31:45.980Z,86.77
2019-01-25T23:34:12.485Z,83.20
2019-01-25T23:36:40.223Z,99.57
2019-01-25T23:39:07.188Z,95.70
2019-01-25T23:41:33.774Z,91.57
2019-01-25T23:44:00.210Z,104.43
2019-01-25T23:46:26.596Z,80.90
2019-01-25T23:48:53.076Z,100.33
2019-01-25T23:51:22.982Z,100.03
2019-01-25T23:53:47.956Z,92.10
2019-01-25T23:56:14.437Z,99.00
2019-01-25T23:58:40.918Z,106.97
